createdAt,value
2018-11-06T00:00:13.299Z,9.00
2018-11-06T00:00:48.762Z,9.00
2018-11-06T00:01:21.358Z,9.10
2018-11-06T00:01:53.962Z,9.10
2018-11-06T00:02:26.595Z,9.10
2018-11-06T00:03:04.698Z,9.10
2018-11-06T00:03:42.975Z,9.10
2018-11-06T00:04:15.601Z,9.10
2018-11-06T00:04:53.743Z,9.10
2018-11-06T00:05:26.348Z,9.10
2018-11-06T00:05:58.959Z,9.10
2018-11-06T00:06:31.762Z,9.10
2018-11-06T00:07:04.362Z,9.00
2018-11-06T00:07:36.968Z,9.10
2018-11-06T00:08:09.584Z,9.00
2018-11-06T00:08:42.218Z,9.10
2018-11-06T00:09:14.872Z,9.00
2018-11-06T00:09:47.681Z,9.00
2018-11-06T00:10:20.274Z,9.00
2018-11-06T00:10:52.886Z,9.00
2018-11-06T00:11:25.519Z,9.00
2018-11-06T00:11:58.110Z,9.00
2018-11-06T00:12:30.720Z,9.00
2018-11-06T00:13:04.387Z,9.00
2018-11-06T00:13:37.360Z,9.10
2018-11-06T00:14:09.961Z,9.00
2018-11-06T00:14:42.565Z,9.00
2018-11-06T00:15:15.174Z,9.00
2018-11-06T00:15:47.816Z,9.00
2018-11-06T00:16:20.440Z,9.00
2018-11-06T00:16:53.031Z,9.00
2018-11-06T00:17:25.614Z,9.00
2018-11-06T00:17:58.195Z,8.90
2018-11-06T00:18:30.802Z,8.90
2018-11-06T00:19:03.421Z,8.90
2018-11-06T00:19:36.003Z,8.90
2018-11-06T00:20:10.691Z,8.90
2018-11-06T00:20:43.320Z,8.90
2018-11-06T00:21:15.929Z,8.90
2018-11-06T00:21:48.524Z,8.90
2018-11-06T00:22:21.201Z,8.90
2018-11-06T00:22:53.825Z,8.90
2018-11-06T00:23:26.410Z,8.90
2018-11-06T00:23:59.003Z,8.90
2018-11-06T00:24:31.619Z,8.90
2018-11-06T00:25:05.038Z,8.80
2018-11-06T00:25:37.656Z,8.90
2018-11-06T00:26:10.259Z,8.80
2018-11-06T00:26:42.890Z,8.80
2018-11-06T00:27:15.491Z,8.80
2018-11-06T00:27:48.162Z,8.80
2018-11-06T00:28:20.751Z,8.80
2018-11-06T00:28:53.386Z,8.80
2018-11-06T00:29:26.004Z,8.80
2018-11-06T00:29:58.600Z,8.80
2018-11-06T00:30:31.198Z,8.80
2018-11-06T00:31:03.837Z,8.70
2018-11-06T00:31:36.473Z,8.70
2018-11-06T00:32:09.095Z,8.70
2018-11-06T00:32:42.120Z,8.70
2018-11-06T00:33:14.732Z,8.70
2018-11-06T00:33:47.342Z,8.70
2018-11-06T00:34:19.976Z,8.80
2018-11-06T00:34:52.563Z,8.80
2018-11-06T00:35:25.134Z,8.80
2018-11-06T00:35:57.752Z,8.80
2018-11-06T00:36:30.334Z,8.70
2018-11-06T00:37:02.923Z,8.70
2018-11-06T00:37:35.531Z,8.70
2018-11-06T00:38:08.144Z,8.70
2018-11-06T00:38:40.792Z,8.70
2018-11-06T00:39:13.382Z,8.70
2018-11-06T00:39:45.980Z,8.70
2018-11-06T00:40:18.613Z,8.70
2018-11-06T00:40:51.202Z,8.70
2018-11-06T00:41:23.865Z,8.70
2018-11-06T00:41:56.454Z,8.70
2018-11-06T00:42:29.051Z,8.70
2018-11-06T00:43:01.686Z,8.70
2018-11-06T00:43:34.264Z,8.60
2018-11-06T00:44:07.070Z,8.60
2018-11-06T00:44:39.696Z,8.60
2018-11-06T00:45:13.634Z,8.60
2018-11-06T00:45:46.223Z,8.60
2018-11-06T00:46:18.815Z,8.60
2018-11-06T00:46:51.406Z,8.60
2018-11-06T00:47:23.992Z,8.60
2018-11-06T00:47:56.607Z,8.60
2018-11-06T00:48:29.229Z,8.50
2018-11-06T00:49:01.812Z,8.50
2018-11-06T00:49:34.454Z,8.50
2018-11-06T00:50:08.151Z,8.50
2018-11-06T00:50:40.764Z,8.50
2018-11-06T00:51:13.394Z,8.50
2018-11-06T00:51:45.984Z,8.50
2018-11-06T00:52:18.563Z,8.50
2018-11-06T00:52:51.168Z,8.60
2018-11-06T00:53:23.767Z,8.50
2018-11-06T00:53:56.371Z,8.50
2018-11-06T00:54:29.043Z,8.50
2018-11-06T00:55:01.844Z,8.50
2018-11-06T00:55:34.524Z,8.50
2018-11-06T00:56:07.156Z,8.50
2018-11-06T00:56:39.714Z,8.50
2018-11-06T00:57:12.315Z,8.50
2018-11-06T00:57:44.920Z,8.50
2018-11-06T00:58:17.556Z,8.60
2018-11-06T00:58:50.132Z,8.60
2018-11-06T00:59:22.726Z,8.50
2018-11-06T00:59:55.387Z,8.50
2018-11-06T01:00:28.073Z,8.50
2018-11-06T01:01:00.695Z,8.50
2018-11-06T01:01:33.287Z,8.50
2018-11-06T01:02:06.260Z,8.50
2018-11-06T01:02:38.887Z,8.50
2018-11-06T01:03:11.499Z,8.50
2018-11-06T01:03:48.873Z,8.50
2018-11-06T01:04:21.475Z,8.60
2018-11-06T01:04:54.052Z,8.50
2018-11-06T01:05:26.631Z,8.60
2018-11-06T01:05:59.256Z,8.60
2018-11-06T01:06:31.844Z,8.50
2018-11-06T01:07:04.612Z,8.60
2018-11-06T01:07:37.196Z,8.60
2018-11-06T01:08:09.787Z,8.50
2018-11-06T01:08:42.412Z,8.50
2018-11-06T01:09:15.872Z,8.50
2018-11-06T01:09:48.594Z,8.50
2018-11-06T01:10:21.220Z,8.50
2018-11-06T01:10:53.824Z,8.50
2018-11-06T01:11:26.623Z,8.50
2018-11-06T01:11:59.319Z,8.50
2018-11-06T01:12:31.892Z,8.50
2018-11-06T01:13:04.671Z,8.50
2018-11-06T01:13:37.248Z,8.50
2018-11-06T01:14:09.863Z,8.50
2018-11-06T01:14:42.508Z,8.50
2018-11-06T01:15:15.909Z,8.50
2018-11-06T01:15:48.553Z,8.50
2018-11-06T01:16:21.591Z,8.50
2018-11-06T01:16:54.222Z,8.50
2018-11-06T01:17:26.832Z,8.40
2018-11-06T01:17:59.399Z,8.50
2018-11-06T01:18:31.967Z,8.50
2018-11-06T01:19:04.870Z,8.50
2018-11-06T01:19:37.485Z,8.50
2018-11-06T01:20:12.320Z,8.40
2018-11-06T01:20:44.918Z,8.50
2018-11-06T01:21:17.485Z,8.40
2018-11-06T01:21:50.121Z,8.50
2018-11-06T01:22:23.552Z,8.50
2018-11-06T01:22:56.177Z,8.50
2018-11-06T01:23:28.745Z,8.50
2018-11-06T01:24:01.361Z,8.50
2018-11-06T01:24:33.990Z,8.50
2018-11-06T01:25:07.381Z,8.50
2018-11-06T01:25:39.960Z,8.50
2018-11-06T01:26:12.539Z,8.50
2018-11-06T01:26:45.106Z,8.50
2018-11-06T01:27:17.721Z,8.60
2018-11-06T01:27:50.360Z,8.60
2018-11-06T01:28:22.947Z,8.60
2018-11-06T01:28:55.581Z,8.50
2018-11-06T01:29:28.196Z,8.50
2018-11-06T01:30:00.783Z,8.60
2018-11-06T01:30:33.372Z,8.50
2018-11-06T01:31:05.986Z,8.60
2018-11-06T01:31:38.567Z,8.60
2018-11-06T01:32:11.171Z,8.50
2018-11-06T01:32:44.547Z,8.50
2018-11-06T01:33:17.155Z,8.50
2018-11-06T01:33:49.719Z,8.50
2018-11-06T01:34:22.307Z,8.50
2018-11-06T01:34:54.906Z,8.50
2018-11-06T01:35:27.503Z,8.50
2018-11-06T01:36:00.137Z,8.50
2018-11-06T01:36:32.713Z,8.50
2018-11-06T01:37:05.354Z,8.50
2018-11-06T01:37:37.918Z,8.50
2018-11-06T01:38:10.529Z,8.50
2018-11-06T01:38:43.154Z,8.50
2018-11-06T01:39:15.719Z,8.50
2018-11-06T01:39:48.316Z,8.50
2018-11-06T01:40:20.896Z,8.50
2018-11-06T01:40:53.470Z,8.40
2018-11-06T01:41:26.039Z,8.50
2018-11-06T01:41:58.648Z,8.50
2018-11-06T01:42:31.211Z,8.50
2018-11-06T01:43:03.822Z,8.50
2018-11-06T01:43:36.410Z,8.50
2018-11-06T01:44:09.061Z,8.50
2018-11-06T01:44:41.654Z,8.50
2018-11-06T01:45:15.584Z,8.50
2018-11-06T01:45:48.315Z,8.50
2018-11-06T01:46:20.952Z,8.50
2018-11-06T01:46:53.553Z,8.50
2018-11-06T01:47:26.130Z,8.50
2018-11-06T01:47:58.715Z,8.50
2018-11-06T01:48:31.284Z,8.50
2018-11-06T01:49:03.906Z,8.50
2018-11-06T01:49:36.499Z,8.50
2018-11-06T01:50:11.659Z,8.50
2018-11-06T01:50:44.222Z,8.50
2018-11-06T01:51:16.791Z,8.50
2018-11-06T01:51:49.397Z,8.50
2018-11-06T01:52:21.967Z,8.60
2018-11-06T01:52:54.530Z,8.60
2018-11-06T01:53:27.138Z,8.60
2018-11-06T01:53:59.717Z,8.60
2018-11-06T01:54:32.280Z,8.60
2018-11-06T01:55:05.414Z,8.60
2018-11-06T01:55:37.986Z,8.60
2018-11-06T01:56:10.601Z,8.60
2018-11-06T01:56:43.158Z,8.60
2018-11-06T01:57:15.772Z,8.60
2018-11-06T01:57:48.369Z,8.60
2018-11-06T01:58:20.950Z,8.60
2018-11-06T01:58:53.588Z,8.60
2018-11-06T01:59:26.216Z,8.60
2018-11-06T01:59:58.838Z,8.60
2018-11-06T02:00:31.485Z,8.60
2018-11-06T02:01:04.211Z,8.70
2018-11-06T02:01:36.787Z,8.70
2018-11-06T02:02:09.398Z,8.70
2018-11-06T02:02:41.999Z,8.70
2018-11-06T02:03:14.584Z,8.70
2018-11-06T02:03:47.172Z,8.60
2018-11-06T02:04:19.763Z,8.60
2018-11-06T02:04:52.367Z,8.60
2018-11-06T02:05:24.932Z,8.60
2018-11-06T02:05:57.551Z,8.60
2018-11-06T02:06:30.114Z,8.60
2018-11-06T02:07:02.719Z,8.60
2018-11-06T02:07:35.396Z,8.60
2018-11-06T02:08:07.963Z,8.60
2018-11-06T02:08:40.589Z,8.60
2018-11-06T02:09:13.205Z,8.60
2018-11-06T02:09:45.766Z,8.50
2018-11-06T02:10:18.426Z,8.60
2018-11-06T02:10:50.990Z,8.60
2018-11-06T02:11:23.672Z,8.60
2018-11-06T02:11:56.252Z,8.60
2018-11-06T02:12:28.895Z,8.60
2018-11-06T02:13:01.499Z,8.60
2018-11-06T02:13:34.062Z,8.60
2018-11-06T02:14:06.790Z,8.70
2018-11-06T02:14:39.387Z,8.70
2018-11-06T02:15:12.052Z,8.70
2018-11-06T02:15:44.671Z,8.70
2018-11-06T02:16:17.277Z,8.70
2018-11-06T02:16:49.879Z,8.60
2018-11-06T02:17:22.486Z,8.60
2018-11-06T02:17:55.055Z,8.70
2018-11-06T02:18:27.624Z,8.60
2018-11-06T02:19:00.244Z,8.60
2018-11-06T02:19:32.826Z,8.60
2018-11-06T02:20:05.650Z,8.60
2018-11-06T02:20:38.234Z,8.70
2018-11-06T02:21:11.096Z,8.60
2018-11-06T02:21:43.730Z,8.60
2018-11-06T02:22:16.356Z,8.70
2018-11-06T02:22:48.963Z,8.70
2018-11-06T02:23:21.542Z,8.70
2018-11-06T02:23:54.159Z,8.70
2018-11-06T02:24:26.734Z,8.70
2018-11-06T02:24:59.335Z,8.70
2018-11-06T02:25:31.941Z,8.60
2018-11-06T02:26:04.550Z,8.60
2018-11-06T02:26:37.173Z,8.70
2018-11-06T02:27:09.780Z,8.70
2018-11-06T02:27:42.390Z,8.60
2018-11-06T02:28:14.969Z,8.70
2018-11-06T02:28:47.560Z,8.70
2018-11-06T02:29:20.139Z,8.70
2018-11-06T02:29:52.791Z,8.70
2018-11-06T02:30:25.428Z,8.70
2018-11-06T02:30:57.996Z,8.70
2018-11-06T02:31:30.620Z,8.70
2018-11-06T02:32:03.271Z,8.70
2018-11-06T02:32:36.014Z,8.70
2018-11-06T02:33:08.579Z,8.70
2018-11-06T02:33:41.188Z,8.70
2018-11-06T02:34:14.178Z,8.70
2018-11-06T02:34:46.760Z,8.60
2018-11-06T02:35:19.392Z,8.60
2018-11-06T02:35:52.013Z,8.70
2018-11-06T02:36:24.585Z,8.70
2018-11-06T02:36:57.156Z,8.70
2018-11-06T02:37:29.768Z,8.60
2018-11-06T02:38:02.351Z,8.60
2018-11-06T02:38:34.954Z,8.60
2018-11-06T02:39:08.689Z,8.60
2018-11-06T02:39:41.307Z,8.60
2018-11-06T02:40:15.016Z,8.60
2018-11-06T02:40:47.587Z,8.60
2018-11-06T02:41:20.216Z,8.60
2018-11-06T02:41:52.787Z,8.60
2018-11-06T02:42:25.398Z,8.60
2018-11-06T02:42:57.990Z,8.50
2018-11-06T02:43:30.552Z,8.50
2018-11-06T02:44:03.192Z,8.50
2018-11-06T02:44:35.763Z,8.50
2018-11-06T02:45:09.202Z,8.50
2018-11-06T02:45:41.806Z,8.50
2018-11-06T02:46:14.402Z,8.50
2018-11-06T02:46:47.011Z,8.50
2018-11-06T02:47:19.614Z,8.50
2018-11-06T02:47:52.178Z,8.50
2018-11-06T02:48:24.748Z,8.50
2018-11-06T02:48:57.320Z,8.50
2018-11-06T02:49:29.981Z,8.50
2018-11-06T02:50:02.680Z,8.50
2018-11-06T02:50:35.306Z,8.40
2018-11-06T02:51:07.917Z,8.40
2018-11-06T02:51:40.495Z,8.40
2018-11-06T02:52:13.063Z,8.40
2018-11-06T02:52:45.636Z,8.40
2018-11-06T02:53:18.283Z,8.40
2018-11-06T02:53:50.896Z,8.40
2018-11-06T02:54:23.506Z,8.40
2018-11-06T02:54:56.099Z,8.40
2018-11-06T02:55:28.666Z,8.40
2018-11-06T02:56:01.338Z,8.40
2018-11-06T02:56:33.874Z,8.40
2018-11-06T02:57:06.504Z,8.40
2018-11-06T02:57:39.487Z,8.40
2018-11-06T02:58:12.047Z,8.40
2018-11-06T02:58:44.611Z,8.40
2018-11-06T02:59:17.189Z,8.40
2018-11-06T02:59:49.763Z,8.40
2018-11-06T03:00:22.371Z,8.40
2018-11-06T03:00:54.962Z,8.40
2018-11-06T03:01:27.530Z,8.40
2018-11-06T03:02:00.123Z,8.40
2018-11-06T03:02:32.702Z,8.40
2018-11-06T03:03:05.415Z,8.30
2018-11-06T03:03:38.847Z,8.30
2018-11-06T03:04:11.468Z,8.30
2018-11-06T03:04:44.039Z,8.30
2018-11-06T03:05:16.648Z,8.30
2018-11-06T03:05:49.292Z,8.30
2018-11-06T03:06:21.907Z,8.30
2018-11-06T03:06:54.515Z,8.30
2018-11-06T03:07:27.083Z,8.30
2018-11-06T03:07:59.686Z,8.30
2018-11-06T03:08:32.271Z,8.30
2018-11-06T03:09:06.223Z,8.30
2018-11-06T03:09:38.798Z,8.20
2018-11-06T03:10:12.362Z,8.20
2018-11-06T03:10:44.927Z,8.20
2018-11-06T03:11:17.535Z,8.20
2018-11-06T03:11:50.131Z,8.20
2018-11-06T03:12:22.722Z,8.20
2018-11-06T03:12:55.322Z,8.20
2018-11-06T03:13:27.956Z,8.20
2018-11-06T03:14:00.502Z,8.20
2018-11-06T03:14:33.121Z,8.20
2018-11-06T03:15:06.311Z,8.20
2018-11-06T03:15:38.886Z,8.10
2018-11-06T03:16:11.484Z,8.10
2018-11-06T03:16:44.147Z,8.10
2018-11-06T03:17:16.699Z,8.10
2018-11-06T03:17:49.255Z,8.10
2018-11-06T03:18:21.819Z,8.10
2018-11-06T03:18:54.432Z,8.10
2018-11-06T03:19:27.000Z,8.10
2018-11-06T03:19:59.613Z,8.00
2018-11-06T03:20:32.202Z,8.00
2018-11-06T03:21:04.829Z,8.00
2018-11-06T03:21:37.404Z,8.00
2018-11-06T03:22:10.060Z,8.10
2018-11-06T03:22:43.227Z,8.10
2018-11-06T03:23:15.842Z,8.00
2018-11-06T03:23:48.407Z,8.00
2018-11-06T03:24:20.977Z,8.00
2018-11-06T03:24:53.551Z,8.00
2018-11-06T03:25:26.123Z,8.00
2018-11-06T03:25:58.699Z,8.00
2018-11-06T03:26:31.318Z,8.00
2018-11-06T03:27:04.028Z,8.00
2018-11-06T03:27:36.574Z,8.00
2018-11-06T03:28:09.158Z,8.00
2018-11-06T03:28:41.723Z,8.00
2018-11-06T03:29:14.283Z,8.00
2018-11-06T03:29:46.905Z,8.00
2018-11-06T03:30:19.535Z,8.00
2018-11-06T03:30:52.114Z,8.00
2018-11-06T03:31:24.727Z,8.00
2018-11-06T03:31:57.328Z,8.00
2018-11-06T03:32:30.009Z,8.00
2018-11-06T03:33:02.623Z,8.00
2018-11-06T03:33:35.226Z,8.00
2018-11-06T03:34:07.840Z,8.00
2018-11-06T03:34:40.461Z,8.00
2018-11-06T03:35:13.840Z,8.00
2018-11-06T03:35:46.397Z,8.00
2018-11-06T03:36:18.946Z,8.10
2018-11-06T03:36:51.572Z,8.10
2018-11-06T03:37:24.188Z,8.10
2018-11-06T03:37:56.769Z,8.10
2018-11-06T03:38:29.439Z,8.10
2018-11-06T03:39:02.011Z,8.20
2018-11-06T03:39:34.651Z,8.20
2018-11-06T03:40:07.802Z,8.20
2018-11-06T03:40:40.405Z,8.20
2018-11-06T03:41:12.994Z,8.20
2018-11-06T03:41:45.606Z,8.20
2018-11-06T03:42:18.197Z,8.20
2018-11-06T03:42:50.783Z,8.20
2018-11-06T03:43:23.404Z,8.30
2018-11-06T03:43:56.036Z,8.30
2018-11-06T03:44:28.620Z,8.30
2018-11-06T03:45:01.236Z,8.30
2018-11-06T03:45:33.845Z,8.30
2018-11-06T03:46:06.462Z,8.30
2018-11-06T03:46:39.063Z,8.30
2018-11-06T03:47:11.623Z,8.30
2018-11-06T03:47:44.210Z,8.30
2018-11-06T03:48:16.794Z,8.30
2018-11-06T03:48:49.404Z,8.30
2018-11-06T03:49:22.036Z,8.40
2018-11-06T03:49:54.618Z,8.40
2018-11-06T03:50:27.210Z,8.40
2018-11-06T03:50:59.806Z,8.40
2018-11-06T03:51:32.407Z,8.40
2018-11-06T03:52:05.179Z,8.40
2018-11-06T03:52:37.750Z,8.40
2018-11-06T03:53:10.335Z,8.40
2018-11-06T03:53:42.965Z,8.40
2018-11-06T03:54:15.679Z,8.40
2018-11-06T03:54:48.311Z,8.40
2018-11-06T03:55:20.915Z,8.50
2018-11-06T03:55:53.495Z,8.40
2018-11-06T03:56:26.117Z,8.50
2018-11-06T03:56:58.717Z,8.50
2018-11-06T03:57:31.326Z,8.40
2018-11-06T03:58:03.942Z,8.50
2018-11-06T03:58:36.725Z,8.50
2018-11-06T03:59:09.343Z,8.50
2018-11-06T03:59:41.921Z,8.50
2018-11-06T04:00:15.059Z,8.50
2018-11-06T04:00:47.677Z,8.50
2018-11-06T04:01:20.256Z,8.50
2018-11-06T04:01:52.831Z,8.50
2018-11-06T04:02:25.432Z,8.50
2018-11-06T04:02:58.002Z,8.60
2018-11-06T04:03:30.595Z,8.60
2018-11-06T04:04:03.198Z,8.60
2018-11-06T04:04:35.820Z,8.50
2018-11-06T04:05:08.937Z,8.50
2018-11-06T04:05:41.566Z,8.60
2018-11-06T04:06:14.192Z,8.60
2018-11-06T04:06:46.762Z,8.60
2018-11-06T04:07:19.377Z,8.60
2018-11-06T04:07:51.978Z,8.60
2018-11-06T04:08:24.582Z,8.60
2018-11-06T04:08:57.157Z,8.60
2018-11-06T04:09:29.779Z,8.60
2018-11-06T04:10:02.588Z,8.60
2018-11-06T04:10:35.202Z,8.60
2018-11-06T04:11:08.121Z,8.60
2018-11-06T04:11:41.214Z,8.60
2018-11-06T04:12:13.815Z,8.60
2018-11-06T04:12:46.431Z,8.60
2018-11-06T04:13:19.003Z,8.60
2018-11-06T04:13:51.566Z,8.60
2018-11-06T04:14:24.177Z,8.60
2018-11-06T04:14:56.739Z,8.60
2018-11-06T04:15:29.330Z,8.60
2018-11-06T04:16:01.952Z,8.60
2018-11-06T04:16:34.604Z,8.60
2018-11-06T04:17:07.227Z,8.60
2018-11-06T04:17:40.103Z,8.60
2018-11-06T04:18:12.684Z,8.60
2018-11-06T04:18:45.295Z,8.60
2018-11-06T04:19:17.915Z,8.60
2018-11-06T04:19:50.488Z,8.60
2018-11-06T04:20:23.092Z,8.60
2018-11-06T04:20:55.708Z,8.60
2018-11-06T04:21:33.840Z,8.60
2018-11-06T04:22:06.488Z,8.60
2018-11-06T04:22:39.750Z,8.70
2018-11-06T04:23:12.365Z,8.70
2018-11-06T04:23:44.940Z,8.70
2018-11-06T04:24:17.526Z,8.70
2018-11-06T04:24:50.131Z,8.70
2018-11-06T04:25:22.702Z,8.70
2018-11-06T04:25:55.307Z,8.60
2018-11-06T04:26:27.875Z,8.60
2018-11-06T04:27:00.483Z,8.60
2018-11-06T04:27:33.077Z,8.60
2018-11-06T04:28:05.775Z,8.70
2018-11-06T04:28:38.391Z,8.60
2018-11-06T04:29:11.010Z,8.60
2018-11-06T04:29:43.599Z,8.60
2018-11-06T04:30:16.204Z,8.60
2018-11-06T04:30:48.802Z,8.60
2018-11-06T04:31:21.420Z,8.60
2018-11-06T04:31:54.007Z,8.70
2018-11-06T04:32:26.591Z,8.60
2018-11-06T04:32:59.186Z,8.60
2018-11-06T04:33:31.849Z,8.70
2018-11-06T04:34:04.780Z,8.60
2018-11-06T04:34:37.370Z,8.60
2018-11-06T04:35:10.623Z,8.70
2018-11-06T04:35:43.223Z,8.70
2018-11-06T04:36:15.795Z,8.70
2018-11-06T04:36:48.387Z,8.70
2018-11-06T04:37:20.997Z,8.70
2018-11-06T04:37:53.583Z,8.70
2018-11-06T04:38:26.229Z,8.70
2018-11-06T04:38:59.310Z,8.70
2018-11-06T04:39:31.902Z,8.70
2018-11-06T04:40:05.487Z,8.70
2018-11-06T04:40:38.078Z,8.70
2018-11-06T04:41:10.680Z,8.70
2018-11-06T04:41:43.328Z,8.70
2018-11-06T04:42:15.926Z,8.70
2018-11-06T04:42:48.503Z,8.70
2018-11-06T04:43:21.106Z,8.70
2018-11-06T04:43:53.745Z,8.70
2018-11-06T04:44:26.338Z,8.70
2018-11-06T04:44:58.966Z,8.80
2018-11-06T04:45:31.590Z,8.80
2018-11-06T04:46:04.539Z,8.80
2018-11-06T04:46:37.107Z,8.80
2018-11-06T04:47:09.683Z,8.90
2018-11-06T04:47:42.503Z,8.90
2018-11-06T04:48:15.082Z,8.90
2018-11-06T04:48:47.738Z,8.90
2018-11-06T04:49:20.343Z,8.90
2018-11-06T04:49:53.263Z,8.90
2018-11-06T04:50:25.835Z,8.90
2018-11-06T04:50:58.457Z,9.00
2018-11-06T04:51:31.066Z,9.00
2018-11-06T04:52:03.825Z,9.10
2018-11-06T04:52:36.460Z,9.10
2018-11-06T04:53:09.039Z,9.10
2018-11-06T04:53:41.654Z,9.10
2018-11-06T04:54:14.265Z,9.10
2018-11-06T04:54:46.846Z,9.10
2018-11-06T04:55:19.431Z,9.20
2018-11-06T04:55:51.991Z,9.20
2018-11-06T04:56:24.599Z,9.20
2018-11-06T04:56:57.206Z,9.20
2018-11-06T04:57:29.919Z,9.20
2018-11-06T04:58:02.523Z,9.10
2018-11-06T04:58:35.106Z,9.10
2018-11-06T04:59:07.744Z,9.10
2018-11-06T04:59:40.346Z,9.10
2018-11-06T05:00:14.186Z,9.00
2018-11-06T05:00:46.759Z,9.00
2018-11-06T05:01:19.406Z,9.00
2018-11-06T05:01:52.039Z,9.00
2018-11-06T05:02:24.628Z,8.90
2018-11-06T05:02:57.215Z,8.90
2018-11-06T05:03:29.807Z,8.80
2018-11-06T05:04:02.415Z,8.80
2018-11-06T05:04:35.023Z,8.80
2018-11-06T05:05:08.164Z,8.70
2018-11-06T05:05:40.782Z,8.70
2018-11-06T05:06:13.790Z,8.70
2018-11-06T05:06:46.409Z,8.70
2018-11-06T05:07:18.977Z,8.70
2018-11-06T05:07:51.551Z,8.60
2018-11-06T05:08:24.134Z,8.60
2018-11-06T05:08:56.734Z,8.50
2018-11-06T05:09:29.314Z,8.50
2018-11-06T05:10:02.747Z,8.50
2018-11-06T05:10:35.312Z,8.50
2018-11-06T05:11:07.969Z,8.40
2018-11-06T05:11:40.534Z,8.40
2018-11-06T05:12:13.184Z,8.40
2018-11-06T05:12:45.777Z,8.40
2018-11-06T05:13:18.404Z,8.30
2018-11-06T05:13:51.037Z,8.30
2018-11-06T05:14:23.665Z,8.30
2018-11-06T05:14:56.216Z,8.30
2018-11-06T05:15:28.821Z,8.20
2018-11-06T05:16:01.374Z,8.20
2018-11-06T05:16:33.974Z,8.20
2018-11-06T05:17:06.566Z,8.20
2018-11-06T05:17:39.149Z,8.10
2018-11-06T05:18:11.722Z,8.10
2018-11-06T05:18:44.336Z,8.10
2018-11-06T05:19:16.929Z,8.10
2018-11-06T05:19:49.548Z,8.10
2018-11-06T05:20:22.139Z,8.10
2018-11-06T05:20:54.742Z,8.00
2018-11-06T05:21:27.319Z,8.00
2018-11-06T05:21:59.911Z,8.00
2018-11-06T05:22:32.455Z,8.00
2018-11-06T05:23:05.066Z,8.00
2018-11-06T05:23:37.639Z,8.00
2018-11-06T05:24:10.233Z,8.00
2018-11-06T05:24:42.814Z,7.90
2018-11-06T05:25:15.690Z,7.90
2018-11-06T05:25:48.244Z,7.90
2018-11-06T05:26:20.827Z,7.90
2018-11-06T05:26:53.442Z,7.90
2018-11-06T05:27:26.121Z,7.90
2018-11-06T05:27:58.684Z,7.90
2018-11-06T05:28:31.255Z,7.90
2018-11-06T05:29:03.855Z,7.90
2018-11-06T05:29:36.452Z,7.90
2018-11-06T05:30:10.076Z,7.90
2018-11-06T05:30:42.675Z,7.90
2018-11-06T05:31:15.259Z,7.90
2018-11-06T05:31:47.843Z,7.90
2018-11-06T05:32:20.424Z,7.90
2018-11-06T05:32:53.077Z,7.90
2018-11-06T05:33:25.962Z,7.80
2018-11-06T05:33:58.546Z,7.80
2018-11-06T05:34:31.147Z,7.80
2018-11-06T05:35:04.306Z,7.80
2018-11-06T05:35:36.920Z,7.80
2018-11-06T05:36:09.476Z,7.80
2018-11-06T05:36:42.035Z,7.80
2018-11-06T05:37:14.639Z,7.80
2018-11-06T05:37:47.214Z,7.70
2018-11-06T05:38:19.801Z,7.70
2018-11-06T05:38:52.388Z,7.70
2018-11-06T05:39:25.086Z,7.70
2018-11-06T05:40:08.887Z,7.70
2018-11-06T05:40:50.672Z,7.70
2018-11-06T05:41:23.278Z,7.70
2018-11-06T05:41:55.859Z,7.70
2018-11-06T05:42:28.481Z,7.70
2018-11-06T05:43:01.055Z,7.60
2018-11-06T05:43:34.094Z,7.60
2018-11-06T05:44:06.717Z,7.60
2018-11-06T05:44:39.271Z,7.60
2018-11-06T05:45:11.866Z,7.60
2018-11-06T05:45:44.520Z,7.60
2018-11-06T05:46:17.095Z,7.60
2018-11-06T05:46:49.659Z,7.60
2018-11-06T05:47:22.292Z,7.60
2018-11-06T05:47:54.921Z,7.50
2018-11-06T05:48:27.478Z,7.50
2018-11-06T05:49:00.075Z,7.50
2018-11-06T05:49:32.688Z,7.50
2018-11-06T05:50:05.312Z,7.50
2018-11-06T05:50:37.888Z,7.50
2018-11-06T05:51:10.516Z,7.50
2018-11-06T05:51:43.118Z,7.50
2018-11-06T05:52:15.691Z,7.50
2018-11-06T05:52:48.308Z,7.50
2018-11-06T05:53:21.059Z,7.50
2018-11-06T05:53:53.623Z,7.50
2018-11-06T05:54:26.252Z,7.50
2018-11-06T05:54:58.828Z,7.50
2018-11-06T05:55:31.437Z,7.50
2018-11-06T05:56:04.379Z,7.50
2018-11-06T05:56:36.946Z,7.50
2018-11-06T05:57:09.531Z,7.40
2018-11-06T05:57:42.136Z,7.50
2018-11-06T05:58:14.683Z,7.50
2018-11-06T05:58:47.299Z,7.50
2018-11-06T05:59:19.906Z,7.40
2018-11-06T05:59:52.526Z,7.40
2018-11-06T06:00:25.153Z,7.40
2018-11-06T06:00:57.714Z,7.40
2018-11-06T06:01:30.340Z,7.40
2018-11-06T06:02:02.926Z,7.40
2018-11-06T06:02:35.495Z,7.40
2018-11-06T06:03:08.079Z,7.40
2018-11-06T06:03:40.666Z,7.40
2018-11-06T06:04:13.286Z,7.40
2018-11-06T06:04:45.842Z,7.40
2018-11-06T06:05:18.434Z,7.40
2018-11-06T06:05:50.999Z,7.40
2018-11-06T06:06:23.558Z,7.40
2018-11-06T06:06:56.188Z,7.40
2018-11-06T06:07:28.780Z,7.40
2018-11-06T06:08:01.358Z,7.40
2018-11-06T06:08:33.953Z,7.50
2018-11-06T06:09:07.078Z,7.50
2018-11-06T06:09:39.626Z,7.50
2018-11-06T06:10:12.223Z,7.50
2018-11-06T06:10:44.858Z,7.50
2018-11-06T06:11:17.464Z,7.50
2018-11-06T06:11:50.060Z,7.50
2018-11-06T06:12:22.675Z,7.60
2018-11-06T06:12:55.235Z,7.60
2018-11-06T06:13:27.839Z,7.60
2018-11-06T06:14:00.402Z,7.60
2018-11-06T06:14:32.987Z,7.60
2018-11-06T06:15:06.659Z,7.60
2018-11-06T06:15:39.295Z,7.60
2018-11-06T06:16:11.976Z,7.70
2018-11-06T06:16:44.610Z,7.60
2018-11-06T06:17:17.243Z,7.70
2018-11-06T06:17:49.775Z,7.70
2018-11-06T06:18:22.392Z,7.70
2018-11-06T06:18:55.017Z,7.60
2018-11-06T06:19:27.620Z,7.60
2018-11-06T06:20:00.236Z,7.60
2018-11-06T06:20:32.818Z,7.60
2018-11-06T06:21:05.412Z,7.60
2018-11-06T06:21:38.051Z,7.60
2018-11-06T06:22:10.648Z,7.70
2018-11-06T06:22:43.350Z,7.70
2018-11-06T06:23:15.874Z,7.60
2018-11-06T06:23:48.497Z,7.70
2018-11-06T06:24:21.107Z,7.60
2018-11-06T06:24:53.720Z,7.60
2018-11-06T06:25:26.273Z,7.60
2018-11-06T06:25:58.834Z,7.60
2018-11-06T06:26:31.574Z,7.60
2018-11-06T06:27:04.326Z,7.60
2018-11-06T06:27:36.931Z,7.60
2018-11-06T06:28:09.522Z,7.50
2018-11-06T06:28:42.133Z,7.60
2018-11-06T06:29:14.728Z,7.50
2018-11-06T06:29:47.340Z,7.50
2018-11-06T06:30:19.940Z,7.50
2018-11-06T06:30:52.566Z,7.50
2018-11-06T06:31:25.147Z,7.50
2018-11-06T06:31:57.764Z,7.50
2018-11-06T06:32:30.440Z,7.50
2018-11-06T06:33:03.033Z,7.50
2018-11-06T06:33:35.720Z,7.50
2018-11-06T06:34:08.336Z,7.50
2018-11-06T06:34:41.003Z,7.50
2018-11-06T06:35:13.559Z,7.50
2018-11-06T06:35:46.128Z,7.50
2018-11-06T06:36:18.838Z,7.50
2018-11-06T06:36:51.438Z,7.50
2018-11-06T06:37:24.027Z,7.50
2018-11-06T06:37:56.651Z,7.40
2018-11-06T06:38:29.285Z,7.50
2018-11-06T06:39:01.923Z,7.50
2018-11-06T06:39:34.522Z,7.50
2018-11-06T06:40:10.399Z,7.50
2018-11-06T06:40:42.931Z,7.50
2018-11-06T06:41:15.510Z,7.50
2018-11-06T06:41:48.099Z,7.50
2018-11-06T06:42:20.701Z,7.50
2018-11-06T06:42:53.267Z,7.50
2018-11-06T06:43:25.877Z,7.50
2018-11-06T06:43:58.451Z,7.60
2018-11-06T06:44:31.034Z,7.60
2018-11-06T06:45:04.152Z,7.60
2018-11-06T06:45:36.714Z,7.60
2018-11-06T06:46:09.357Z,7.60
2018-11-06T06:46:41.952Z,7.60
2018-11-06T06:47:14.524Z,7.60
2018-11-06T06:47:47.192Z,7.60
2018-11-06T06:48:19.754Z,7.60
2018-11-06T06:48:52.407Z,7.60
2018-11-06T06:49:25.013Z,7.60
2018-11-06T06:49:57.599Z,7.70
2018-11-06T06:50:30.172Z,7.70
2018-11-06T06:51:02.780Z,7.70
2018-11-06T06:51:35.378Z,7.70
2018-11-06T06:52:07.979Z,7.70
2018-11-06T06:52:41.086Z,7.70
2018-11-06T06:53:13.696Z,7.70
2018-11-06T06:53:46.293Z,7.70
2018-11-06T06:54:19.025Z,7.80
2018-11-06T06:54:51.511Z,7.90
2018-11-06T06:55:24.125Z,7.90
2018-11-06T06:55:56.699Z,7.90
2018-11-06T06:56:29.270Z,7.90
2018-11-06T06:57:01.859Z,7.90
2018-11-06T06:57:34.697Z,7.90
2018-11-06T06:58:07.262Z,8.00
2018-11-06T06:58:39.859Z,8.00
2018-11-06T06:59:12.443Z,8.00
2018-11-06T06:59:45.043Z,8.00
2018-11-06T07:00:18.937Z,8.00
2018-11-06T07:00:51.537Z,8.00
2018-11-06T07:01:24.166Z,8.00
2018-11-06T07:01:56.863Z,8.10
2018-11-06T07:02:29.504Z,8.10
2018-11-06T07:03:02.067Z,8.00
2018-11-06T07:03:34.651Z,8.10
2018-11-06T07:04:07.270Z,8.10
2018-11-06T07:04:39.920Z,8.10
2018-11-06T07:05:13.854Z,8.20
2018-11-06T07:05:46.416Z,8.20
2018-11-06T07:06:19.012Z,8.10
2018-11-06T07:06:51.623Z,8.20
2018-11-06T07:07:24.199Z,8.20
2018-11-06T07:07:56.831Z,8.20
2018-11-06T07:08:29.438Z,8.20
2018-11-06T07:09:02.088Z,8.20
2018-11-06T07:09:34.908Z,8.20
2018-11-06T07:10:09.600Z,8.30
2018-11-06T07:10:42.208Z,8.20
2018-11-06T07:11:14.820Z,8.30
2018-11-06T07:11:47.398Z,8.30
2018-11-06T07:12:20.035Z,8.30
2018-11-06T07:12:52.691Z,8.30
2018-11-06T07:13:25.903Z,8.30
2018-11-06T07:13:58.509Z,8.30
2018-11-06T07:14:31.136Z,8.30
2018-11-06T07:15:04.872Z,8.30
2018-11-06T07:15:37.453Z,8.30